Barrett, North Carolina
Current Conditions -  °F | °C
As of 4:15 PM on Saturday 22 Nov 2014 (Local Time) from KHLX Reporting Station
Clear Clear  
Wind Chill: 40°   Ceiling: Unl
Heat Index: 45°   Visibility: 10mi
Dew Point: 18°   Wind: 9mph
Humidity: 34%   Direction: 170°S
Pressure: 30.3"   Gusts: NA
Location:  36.5243°N, 80.9743°W
Report Text: KHLX 222115Z AUTO 17008KT 140V200 10SM CLR 07/M08 A3030 RMK AO2 T00721079
Loading
Personal Weather Stations






























Interactive Weather Map New forecast layout! Learn more

10-Day Weather Forecast

Advertisements
Track Severe Weather on mobile